Time;durP1;ratioP1;P1;durP2;ratioP2;P2;SDS_P1;SDS_P2;PMS_P1;PMS_P2;Temp;Humidity;BMP_temperature;BMP_pressure;BME280_temperature;BME280_humidity;BME280_pressure;Samples;Min_cycle;Max_cycle;Signal;HPM_P1;HPM_P2
2023/03/25 00:00:43;;;;;;;6.20;4.50;;;;;;;19.62;56.87;98031.45;268034;1267;22529;-73
2023/03/25 00:06:56;;;;;;;6.70;4.50;;;;;;;19.47;57.41;98032.98;268892;1270;22824;-78
2023/03/25 00:13:03;;;;;;;7.40;4.80;;;;;;;19.36;57.47;98034.33;269306;1273;25471;-77
2023/03/25 00:19:05;;;;;;;6.90;4.80;;;;;;;19.50;57.36;98029.10;268957;1273;24196;-77
2023/03/25 00:25:17;;;;;;;7.40;4.20;;;;;;;19.83;56.59;98020.73;268827;1267;25444;-78
2023/03/25 00:31:19;;;;;;;5.00;4.00;;;;;;;20.03;56.32;98010.31;269306;1251;22584;-78
2023/03/25 00:37:21;;;;;;;6.10;3.80;;;;;;;20.17;55.89;98004.02;268301;1269;22665;-78
2023/03/25 00:43:23;;;;;;;5.80;4.10;;;;;;;20.20;55.72;97995.64;268409;1269;23327;-77
2023/03/25 00:49:27;;;;;;;6.50;4.10;;;;;;;20.10;55.78;97991.52;268381;1266;22561;-77
2023/03/25 00:55:29;;;;;;;6.70;4.40;;;;;;;20.09;56.02;97992.36;268310;1273;22624;-77
2023/03/25 01:01:30;;;;;;;7.30;4.70;;;;;;;20.31;55.38;97998.62;268308;1268;22983;-76
2023/03/25 01:07:32;;;;;;;8.30;5.00;;;;;;;20.38;55.35;97999.17;268136;1270;22587;-77
2023/03/25 01:13:34;;;;;;;6.90;4.90;;;;;;;20.28;55.44;98005.20;268278;1267;25345;-77
2023/03/25 01:19:35;;;;;;;9.00;6.10;;;;;;;20.19;55.74;97995.70;268172;1270;24525;-76
2023/03/25 01:25:37;;;;;;;7.70;5.50;;;;;;;20.34;55.61;97991.02;268271;1273;22575;-77
2023/03/25 01:31:39;;;;;;;9.20;5.90;;;;;;;20.35;55.74;97988.02;268664;1269;22598;-76
2023/03/25 01:37:43;;;;;;;10.30;6.90;;;;;;;20.23;55.94;97991.11;267383;1267;22544;-75
2023/03/25 01:44:05;;;;;;;12.50;7.10;;;;;;;20.22;55.98;97991.20;267502;1270;24224;-75
2023/03/25 01:50:13;;;;;;;9.40;6.80;;;;;;;20.20;56.31;97984.04;268513;1255;22620;-77
2023/03/25 01:56:18;;;;;;;10.00;6.80;;;;;;;19.73;57.40;97985.87;267324;1269;22532;-76
2023/03/25 02:02:23;;;;;;;12.10;7.10;;;;;;;19.71;57.67;97980.30;269247;1267;22588;-76
2023/03/25 02:08:25;;;;;;;8.60;6.50;;;;;;;19.68;57.71;97979.06;269245;1269;22527;-78
2023/03/25 02:14:29;;;;;;;8.80;6.50;;;;;;;19.62;58.01;97970.44;268628;1262;24294;-76
2023/03/25 02:20:40;;;;;;;10.50;6.40;;;;;;;19.91;57.35;97968.07;268384;1268;26409;-76
2023/03/25 02:27:26;;;;;;;8.50;5.50;;;;;;;20.10;56.94;97980.00;268216;1270;22607;-75
2023/03/25 02:33:44;;;;;;;8.60;5.70;;;;;;;20.42;56.31;97977.84;268104;1273;26502;-76
2023/03/25 02:40:05;;;;;;;6.50;4.90;;;;;;;20.19;56.91;97982.31;268445;1267;22538;-76
2023/03/25 02:46:11;;;;;;;8.10;4.90;;;;;;;20.13;57.33;97984.56;268283;1267;25358;-76
2023/03/25 02:52:36;;;;;;;7.90;5.10;;;;;;;20.28;56.91;97986.10;267597;1267;22533;-79
2023/03/25 02:58:39;;;;;;;7.00;4.60;;;;;;;20.33;56.99;97990.69;268155;1274;22522;-76
2023/03/25 03:04:50;;;;;;;6.60;4.40;;;;;;;20.45;56.97;97989.34;268437;1267;22587;-76
2023/03/25 03:11:01;;;;;;;7.50;4.70;;;;;;;20.29;57.30;97992.30;268665;1273;22527;-77
2023/03/25 03:17:12;;;;;;;8.50;4.60;;;;;;;20.25;57.93;97995.42;268446;1266;24166;-76
2023/03/25 03:23:53;;;;;;;10.00;6.10;;;;;;;19.82;59.21;97998.96;268671;1273;23676;-77
2023/03/25 03:30:17;;;;;;;10.20;5.90;;;;;;;19.59;60.50;98003.79;268519;1270;22986;-77
2023/03/25 03:36:23;;;;;;;9.40;6.40;;;;;;;19.37;61.94;98016.38;268220;1269;22567;-77
2023/03/25 03:42:37;;;;;;;9.70;5.70;;;;;;;19.60;61.55;98019.13;268889;1266;23198;-77
2023/03/25 03:48:43;;;;;;;8.80;5.50;;;;;;;19.71;61.36;98032.50;268612;1268;23056;-76
2023/03/25 03:54:48;;;;;;;8.30;5.70;;;;;;;19.89;60.85;98034.27;268444;1267;22541;-77
2023/03/25 04:00:53;;;;;;;8.40;6.10;;;;;;;19.98;60.23;98038.45;268952;1269;23316;-76
2023/03/25 04:07:06;;;;;;;9.00;6.00;;;;;;;19.81;59.85;98045.91;268342;1269;22701;-77
2023/03/25 04:13:10;;;;;;;8.10;4.80;;;;;;;19.88;58.67;98052.71;268345;1251;22706;-77
2023/03/25 04:19:18;;;;;;;6.00;3.00;;;;;;;19.55;56.84;98065.83;267978;1256;25344;-77
2023/03/25 04:25:24;;;;;;;4.50;2.70;;;;;;;19.14;55.20;98072.87;268347;1264;24235;-77
2023/03/25 04:31:30;;;;;;;5.00;2.50;;;;;;;19.03;54.45;98079.53;268015;1260;24241;-79
2023/03/25 04:37:35;;;;;;;4.50;2.10;;;;;;;19.03;54.16;98079.56;268063;1274;22528;-77
2023/03/25 04:43:38;;;;;;;4.40;2.10;;;;;;;18.68;54.45;98083.43;268466;1270;25313;-77
2023/03/25 04:49:43;;;;;;;4.90;2.10;;;;;;;18.74;54.51;98082.11;267732;1270;25492;-74
2023/03/25 04:55:48;;;;;;;4.60;1.90;;;;;;;19.01;54.34;98087.08;267072;1265;24247;-74
2023/03/25 05:01:51;;;;;;;4.70;1.90;;;;;;;18.85;54.61;98099.77;267151;1269;22655;-73
2023/03/25 05:07:54;;;;;;;3.30;2.00;;;;;;;18.98;54.91;98103.43;267341;1257;25412;-74
2023/03/25 05:13:55;;;;;;;5.30;2.20;;;;;;;18.92;54.99;98114.64;267565;1270;22530;-74
2023/03/25 05:19:57;;;;;;;7.10;2.80;;;;;;;19.24;54.56;98117.37;267771;1267;22550;-74
2023/03/25 05:26:01;;;;;;;7.10;3.20;;;;;;;19.04;54.78;98123.20;268112;1266;25249;-78
2023/03/25 05:32:03;;;;;;;6.20;3.20;;;;;;;19.03;54.68;98122.50;268383;1267;26502;-75
2023/03/25 05:38:07;;;;;;;6.40;3.30;;;;;;;19.14;54.62;98120.95;267988;1258;25327;-75
2023/03/25 05:44:13;;;;;;;5.00;3.30;;;;;;;19.37;54.50;98123.83;267661;1273;22528;-75
2023/03/25 05:50:15;;;;;;;7.00;4.30;;;;;;;19.19;55.22;98133.23;268004;1266;25184;-77
2023/03/25 05:56:18;;;;;;;9.70;4.00;;;;;;;19.26;55.70;98132.54;267387;1270;22593;-80
2023/03/25 06:02:20;;;;;;;6.50;3.60;;;;;;;19.34;55.78;98141.50;268362;1267;24292;-74
2023/03/25 06:08:24;;;;;;;8.30;3.80;;;;;;;19.26;55.89;98133.24;267199;1269;25445;-79
2023/03/25 06:14:31;;;;;;;9.30;4.30;;;;;;;19.02;56.16;98132.94;268500;1268;22632;-78
2023/03/25 06:20:33;;;;;;;6.30;3.70;;;;;;;19.24;55.56;98140.39;268089;1271;25288;-78
2023/03/25 06:26:35;;;;;;;9.10;4.20;;;;;;;19.53;55.09;98145.52;268203;1269;22568;-77
2023/03/25 06:32:37;;;;;;;5.90;3.60;;;;;;;19.65;54.69;98150.56;268680;1269;25406;-77
2023/03/25 06:38:39;;;;;;;7.10;2.90;;;;;;;19.74;54.47;98136.90;268168;1271;23205;-77
2023/03/25 06:44:46;;;;;;;6.40;3.70;;;;;;;20.24;53.52;98150.80;268659;1271;22533;-75
2023/03/25 06:51:08;;;;;;;6.50;3.40;;;;;;;20.18;53.32;98162.92;268899;1272;22544;-75
2023/03/25 06:57:09;;;;;;;7.00;3.60;;;;;;;20.37;53.16;98164.91;267088;1267;23313;-73
2023/03/25 07:03:12;;;;;;;7.20;3.60;;;;;;;20.44;53.30;98170.15;267439;1262;22586;-79
2023/03/25 07:09:14;;;;;;;7.80;3.80;;;;;;;20.52;53.31;98160.08;267649;1268;22575;-77
2023/03/25 07:15:16;;;;;;;7.40;4.00;;;;;;;20.61;52.93;98160.64;267366;1259;22526;-74
2023/03/25 07:21:18;;;;;;;6.40;4.00;;;;;;;20.67;52.72;98161.01;267484;1266;25301;-72
2023/03/25 07:27:20;;;;;;;6.40;3.60;;;;;;;20.51;52.91;98163.67;267544;1252;24203;-73
2023/03/25 07:33:29;;;;;;;9.80;4.00;;;;;;;20.10;53.94;98162.16;268530;1268;23872;-73
2023/03/25 07:39:31;;;;;;;7.10;4.50;;;;;;;20.48;53.67;98160.81;268944;1274;22539;-72
2023/03/25 07:45:34;;;;;;;8.30;4.50;;;;;;;20.94;53.36;98156.92;267851;1270;24016;-72
2023/03/25 07:51:45;;;;;;;6.60;4.70;;;;;;;21.12;53.50;98149.24;267730;1262;117482;-74
2023/03/25 07:57:47;;;;;;;7.70;5.30;;;;;;;21.31;53.50;98135.95;268564;1260;24324;-72
2023/03/25 08:03:49;;;;;;;9.10;5.50;;;;;;;21.40;53.72;98133.98;268080;1266;22542;-73
2023/03/25 08:09:50;;;;;;;15.20;5.20;;;;;;;21.37;53.82;98137.74;267412;1268;23313;-73
2023/03/25 08:15:52;;;;;;;9.70;5.70;;;;;;;21.08;53.72;98139.63;267625;1256;24351;-72
2023/03/25 08:21:54;;;;;;;7.50;4.90;;;;;;;21.09;53.70;98140.79;267703;1266;25119;-74
2023/03/25 08:27:56;;;;;;;6.10;4.50;;;;;;;21.18;53.36;98139.38;267474;1267;22533;-75
2023/03/25 08:33:59;;;;;;;7.80;4.70;;;;;;;20.69;53.06;98141.34;267258;1260;25445;-74
2023/03/25 08:40:06;;;;;;;5.80;4.00;;;;;;;20.84;52.59;98142.25;267812;1269;25240;-74
2023/03/25 08:46:08;;;;;;;5.50;3.50;;;;;;;20.93;52.41;98144.39;267259;1266;22539;-73
2023/03/25 08:52:09;;;;;;;6.10;3.30;;;;;;;21.22;50.79;98144.02;267032;1269;24361;-73
2023/03/25 08:58:11;;;;;;;3.80;2.20;;;;;;;21.32;49.09;98128.17;267611;1262;22552;-72
2023/03/25 09:04:12;;;;;;;3.60;2.50;;;;;;;21.75;48.02;98131.68;267446;1266;22607;-72
2023/03/25 09:10:14;;;;;;;5.20;2.20;;;;;;;22.25;47.52;98127.66;267743;1268;25308;-73
2023/03/25 09:16:16;;;;;;;4.00;1.90;;;;;;;22.42;45.63;98121.36;267751;1268;23877;-73
2023/03/25 09:22:18;;;;;;;3.70;2.00;;;;;;;22.60;44.79;98110.98;267655;1256;22612;-73
2023/03/25 09:28:19;;;;;;;3.60;1.80;;;;;;;22.71;44.97;98098.02;267778;1267;25072;-72
2023/03/25 09:34:21;;;;;;;3.80;1.40;;;;;;;23.38;44.65;98086.59;267471;1267;22586;-73
2023/03/25 09:40:23;;;;;;;3.00;1.80;;;;;;;22.78;43.25;98086.80;267787;1269;24373;-73
2023/03/25 09:46:25;;;;;;;5.00;2.00;;;;;;;23.00;42.74;98081.48;268439;1269;22568;-73
2023/03/25 09:52:34;;;;;;;3.20;1.60;;;;;;;22.70;42.56;98081.25;267786;1266;24796;-73
2023/03/25 09:58:43;;;;;;;3.60;1.80;;;;;;;22.98;42.28;98063.89;268067;1258;22621;-73
2023/03/25 10:05:17;;;;;;;3.60;1.60;;;;;;;22.75;42.49;98060.60;267769;1262;22613;-72
2023/03/25 10:11:48;;;;;;;4.20;1.70;;;;;;;22.47;42.23;98057.20;267432;1262;23095;-71
2023/03/25 10:18:13;;;;;;;4.30;1.80;;;;;;;22.56;42.66;98048.02;267495;1266;22530;-71
2023/03/25 10:24:24;;;;;;;4.60;1.90;;;;;;;22.83;42.90;98044.63;267452;1269;22546;-72
2023/03/25 10:30:50;;;;;;;3.80;1.90;;;;;;;23.99;42.18;98044.33;270856;1254;22799;-72
2023/03/25 10:36:57;;;;;;;4.60;2.10;;;;;;;24.06;41.09;98046.80;268212;1265;22496;-71
2023/03/25 10:43:13;;;;;;;;;;;;;;;23.69;41.20;98033.36;270198;1259;22506;-72
2023/03/25 10:49:21;;;;;;;3.70;2.00;;;;;;;23.59;41.75;98022.30;268675;1272;22644;-71
2023/03/25 10:55:25;;;;;;;5.00;2.30;;;;;;;24.12;41.43;98012.20;267989;1268;23760;-72
2023/03/25 11:01:45;;;;;;;3.50;2.10;;;;;;;24.24;40.57;98002.34;267363;1268;24186;-72
2023/03/25 11:07:50;;;;;;;4.60;2.20;;;;;;;23.49;40.04;98002.79;267099;1262;24888;-72
2023/03/25 11:13:56;;;;;;;4.40;1.70;;;;;;;23.68;40.63;97986.90;267367;1266;22594;-71
2023/03/25 11:20:06;;;;;;;4.70;1.80;;;;;;;23.21;41.01;97990.36;267303;1256;22641;-71
2023/03/25 11:26:29;;;;;;;4.70;1.80;;;;;;;22.43;41.88;97989.35;267006;1271;22724;-72
2023/03/25 11:32:38;;;;;;;3.60;1.20;;;;;;;22.36;42.63;97979.20;267045;1267;25336;-71
2023/03/25 11:38:40;;;;;;;1.80;0.80;;;;;;;22.97;41.08;97964.51;266978;1267;22603;-73
2023/03/25 11:44:49;;;;;;;3.10;1.20;;;;;;;23.34;40.14;97958.98;267904;1271;22635;-72
2023/03/25 11:50:57;;;;;;;4.20;1.00;;;;;;;23.88;39.31;97959.30;267500;1266;22550;-71
2023/03/25 11:56:58;;;;;;;2.10;0.80;;;;;;;24.02;37.78;97964.27;267596;1272;23135;-71
2023/03/25 12:03:02;;;;;;;2.40;0.80;;;;;;;24.36;37.34;97961.30;267807;1266;25279;-71
2023/03/25 12:09:08;;;;;;;3.80;1.20;;;;;;;23.96;38.75;97974.96;266997;1272;25253;-71
2023/03/25 12:15:36;;;;;;;3.80;1.40;;;;;;;22.97;42.12;97980.77;267210;1272;22715;-73
2023/03/25 12:22:08;;;;;;;2.80;1.40;;;;;;;21.75;45.26;97987.73;265821;1279;22570;-72
2023/03/25 12:28:54;;;;;;;2.40;0.90;;;;;;;20.76;46.77;98008.93;265589;1264;25362;-73
2023/03/25 12:35:14;;;;;;;2.20;1.00;;;;;;;20.72;46.74;97992.20;265265;1273;22547;-72
2023/03/25 12:41:30;;;;;;;1.70;1.00;;;;;;;21.67;44.07;97982.56;264803;1282;25363;-72
2023/03/25 12:47:31;;;;;;;2.90;0.90;;;;;;;22.20;43.03;97993.45;264705;1271;22552;-72
2023/03/25 12:53:52;;;;;;;2.70;1.30;;;;;;;22.54;42.87;98004.42;264454;1277;25372;-72
2023/03/25 13:00:13;;;;;;;2.10;1.30;;;;;;;21.92;44.85;98011.75;266268;1273;24190;-72
2023/03/25 13:06:42;;;;;;;1.40;0.60;;;;;;;22.01;43.45;98007.31;266400;1273;22534;-72
2023/03/25 13:12:52;;;;;;;2.20;0.50;;;;;;;21.95;42.19;98001.57;267301;1265;22938;-71
2023/03/25 13:19:13;;;;;;;1.20;0.70;;;;;;;21.55;42.20;98006.06;267709;1266;22534;-71
2023/03/25 13:25:24;;;;;;;2.10;0.50;;;;;;;21.59;41.93;97993.58;267408;1260;22614;-72
2023/03/25 13:31:34;;;;;;;2.00;0.40;;;;;;;21.98;41.08;97979.89;267203;1269;22568;-71
2023/03/25 13:37:45;;;;;;;0.80;0.50;;;;;;;22.58;40.05;97980.30;267562;1267;23870;-71
2023/03/25 13:43:54;;;;;;;2.30;0.50;;;;;;;23.12;39.33;97968.54;266717;1265;22642;-71
2023/03/25 13:50:02;;;;;;;2.40;0.90;;;;;;;23.20;39.40;97963.38;267364;1268;22711;-72
2023/03/25 13:56:40;;;;;;;3.80;1.50;;;;;;;22.22;40.35;97958.45;267679;1257;22930;-72
2023/03/25 14:03:11;;;;;;;1.10;0.70;;;;;;;21.78;41.27;97965.89;266753;1267;22556;-72
2023/03/25 14:09:48;;;;;;;2.10;0.90;;;;;;;21.82;41.68;97952.62;264645;1274;22951;-72
2023/03/25 14:15:58;;;;;;;;;;;;;;;21.50;41.57;97954.86;264801;1280;24261;-74
2023/03/25 14:22:07;;;;;;;3.70;1.00;;;;;;;21.71;42.21;97961.79;265077;1267;22543;-74
2023/03/25 14:28:15;;;;;;;2.50;1.10;;;;;;;21.54;42.76;97974.02;264842;1280;23030;-72
2023/03/25 14:34:25;;;;;;;3.10;1.30;;;;;;;21.99;42.45;97969.10;266439;1283;22648;-74
2023/03/25 14:40:46;;;;;;;3.20;1.20;;;;;;;22.66;41.58;97968.80;266284;1274;23141;-74
2023/03/25 14:47:14;;;;;;;4.70;1.00;;;;;;;22.83;40.82;97962.64;266919;1272;23904;-74
2023/03/25 14:53:17;;;;;;;2.70;1.10;;;;;;;22.75;40.27;97958.86;267477;1269;22536;-75
2023/03/25 14:59:25;;;;;;;2.00;1.00;;;;;;;22.41;40.49;97966.55;267362;1266;25281;-71
2023/03/25 15:05:28;;;;;;;2.90;1.30;;;;;;;22.26;40.68;97960.54;267466;1267;23465;-70
2023/03/25 15:11:35;;;;;;;3.70;1.10;;;;;;;21.93;40.83;97955.27;267101;1262;22583;-72
2023/03/25 15:17:47;;;;;;;3.90;1.00;;;;;;;21.67;41.14;97950.94;267039;1268;25239;-72
2023/03/25 15:23:58;;;;;;;2.50;0.80;;;;;;;20.87;40.83;97974.33;268098;1263;23324;-71
2023/03/25 15:30:32;;;;;;;2.40;0.90;;;;;;;21.03;39.88;97970.77;268004;1260;22606;-71
2023/03/25 15:36:52;;;;;;;2.30;0.90;;;;;;;21.19;39.17;97979.96;268476;1253;22683;-70
2023/03/25 15:43:04;;;;;;;2.50;1.00;;;;;;;20.67;39.32;97979.99;267676;1264;22856;-71
2023/03/25 15:49:37;;;;;;;1.40;0.70;;;;;;;21.08;38.77;97983.68;267432;1259;22537;-72
2023/03/25 15:55:45;;;;;;;3.40;1.60;;;;;;;20.76;38.51;97989.48;269307;1263;22566;-71
2023/03/25 16:01:48;;;;;;;1.60;0.80;;;;;;;20.33;39.50;97992.98;268458;1270;22992;-72
2023/03/25 16:07:50;;;;;;;3.30;1.00;;;;;;;19.91;41.35;98002.49;267856;1267;23097;-71
2023/03/25 16:14:07;;;;;;;4.30;1.60;;;;;;;19.88;42.00;98001.76;268258;1270;22550;-72
2023/03/25 16:20:14;;;;;;;3.50;1.30;;;;;;;19.63;42.44;97998.15;268720;1267;22535;-71
2023/03/25 16:26:37;;;;;;;2.10;1.00;;;;;;;19.55;42.42;98007.44;267552;1260;22570;-71
2023/03/25 16:32:38;;;;;;;3.20;1.00;;;;;;;19.69;42.43;98007.54;268148;1266;22540;-72
2023/03/25 16:38:40;;;;;;;2.50;1.10;;;;;;;19.91;42.19;98009.36;267608;1260;22523;-77
2023/03/25 16:44:42;;;;;;;3.20;1.10;;;;;;;20.03;41.98;98015.51;267465;1273;22574;-73
2023/03/25 16:50:44;;;;;;;2.10;1.00;;;;;;;20.00;42.08;98019.80;268906;1270;22621;-78
2023/03/25 16:56:56;;;;;;;2.50;1.40;;;;;;;19.48;42.91;98020.48;269516;1270;22586;-83
2023/03/25 17:03:38;;;;;;;3.90;1.30;;;;;;;19.45;43.77;98027.83;269125;1270;22575;-81
2023/03/25 17:09:49;;;;;;;3.70;1.70;;;;;;;19.23;44.64;98039.86;269242;1274;24202;-80
2023/03/25 17:15:51;;;;;;;4.50;1.90;;;;;;;19.01;45.56;98039.27;269050;1273;26244;-82
2023/03/25 17:22:31;;;;;;;6.80;2.10;;;;;;;18.89;46.03;98039.98;268708;1270;23811;-73
2023/03/25 17:28:41;;;;;;;5.80;2.30;;;;;;;18.88;46.14;98046.64;267649;1267;22655;-73
2023/03/25 17:34:54;;;;;;;5.80;3.00;;;;;;;18.73;46.70;98053.87;267897;1270;22558;-73
2023/03/25 17:41:05;;;;;;;7.60;3.10;;;;;;;18.77;46.69;98062.81;268053;1267;24249;-73
2023/03/25 17:47:12;;;;;;;5.90;2.80;;;;;;;18.88;46.41;98074.48;269135;1266;25309;-74
2023/03/25 17:53:13;;;;;;;6.90;3.70;;;;;;;18.49;47.17;98077.73;268364;1267;22533;-73
2023/03/25 17:59:18;;;;;;;9.50;3.70;;;;;;;18.41;47.46;98073.83;268623;1259;22689;-74
2023/03/25 18:05:19;;;;;;;7.40;3.60;;;;;;;18.37;47.79;98077.61;267877;1267;25275;-73
2023/03/25 18:11:24;;;;;;;7.50;4.00;;;;;;;18.17;48.23;98068.52;267883;1258;22566;-74
2023/03/25 18:17:26;;;;;;;7.50;3.80;;;;;;;18.09;48.61;98075.64;267859;1267;22541;-73
2023/03/25 18:23:27;;;;;;;7.50;4.10;;;;;;;18.27;48.37;98078.83;268130;1267;23383;-73
2023/03/25 18:29:30;;;;;;;8.90;4.30;;;;;;;18.26;48.46;98079.82;268183;1269;25332;-73
2023/03/25 18:35:32;;;;;;;6.90;3.60;;;;;;;18.48;48.27;98073.13;268513;1267;22575;-73
2023/03/25 18:41:34;;;;;;;9.10;3.80;;;;;;;18.44;48.36;98071.46;268055;1266;24967;-73
2023/03/25 18:47:37;;;;;;;10.30;3.90;;;;;;;18.62;48.15;98073.08;267781;1266;23306;-72
2023/03/25 18:53:39;;;;;;;9.40;4.30;;;;;;;18.81;48.03;98068.45;267243;1266;22554;-73
2023/03/25 18:59:41;;;;;;;10.60;4.80;;;;;;;18.94;47.94;98070.75;267131;1267;22550;-74
2023/03/25 19:05:44;;;;;;;10.20;4.60;;;;;;;19.02;47.72;98080.05;267156;1253;24347;-73
2023/03/25 19:11:46;;;;;;;8.10;4.40;;;;;;;18.84;48.32;98089.68;267113;1270;22662;-74
2023/03/25 19:17:48;;;;;;;10.20;4.80;;;;;;;18.77;48.92;98088.09;266716;1264;23101;-73
2023/03/25 19:23:50;;;;;;;11.60;4.50;;;;;;;18.38;49.56;98087.28;267194;1258;22551;-74
2023/03/25 19:29:54;;;;;;;10.00;4.80;;;;;;;18.09;49.94;98081.36;267295;1257;23878;-74
2023/03/25 19:35:59;;;;;;;12.40;5.50;;;;;;;18.19;49.42;98086.44;267722;1255;24466;-73
2023/03/25 19:42:03;;;;;;;12.00;6.80;;;;;;;18.33;49.23;98090.33;267327;1267;22605;-73
2023/03/25 19:48:04;;;;;;;18.00;9.30;;;;;;;18.48;49.18;98085.77;267208;1256;24685;-72
2023/03/25 19:54:08;;;;;;;14.60;8.00;;;;;;;18.37;49.34;98092.38;267332;1258;176242;-74
2023/03/25 20:00:16;;;;;;;16.70;8.40;;;;;;;18.25;49.38;98088.83;267201;1259;23344;-74
2023/03/25 20:06:18;;;;;;;15.10;8.30;;;;;;;17.74;50.30;98092.92;267903;1257;22533;-77
2023/03/25 20:12:20;;;;;;;17.20;8.20;;;;;;;17.75;50.04;98097.63;267608;1269;22631;-75
2023/03/25 20:18:23;;;;;;;15.50;8.40;;;;;;;17.66;50.15;98100.52;268684;1264;22617;-81
2023/03/25 20:24:25;;;;;;;16.90;8.60;;;;;;;17.34;50.61;98099.08;267945;1267;22530;-75
2023/03/25 20:30:41;;;;;;;15.10;7.40;;;;;;;17.06;50.94;98096.09;268197;1266;22586;-82
2023/03/25 20:36:55;;;;;;;17.20;8.60;;;;;;;16.78;51.10;98092.21;267477;1259;24221;-77
2023/03/25 20:42:57;;;;;;;15.20;7.70;;;;;;;16.64;51.25;98088.80;267715;1266;22543;-74
2023/03/25 20:49:02;;;;;;;15.20;8.10;;;;;;;16.56;51.61;98091.28;267840;1266;22572;-75
2023/03/25 20:55:04;;;;;;;15.70;7.60;;;;;;;16.38;51.96;98090.85;267268;1259;22555;-76
2023/03/25 21:01:06;;;;;;;16.20;7.90;;;;;;;16.32;52.26;98095.77;267199;1257;22541;-75
2023/03/25 21:07:10;;;;;;;14.90;7.90;;;;;;;16.27;52.64;98096.90;267459;1270;22646;-76
2023/03/25 21:13:13;;;;;;;13.80;7.30;;;;;;;16.49;52.28;98101.10;267074;1253;22548;-74
2023/03/25 21:19:15;;;;;;;14.20;7.20;;;;;;;16.55;52.25;98097.02;267648;1266;22556;-73
2023/03/25 21:25:17;;;;;;;13.20;6.10;;;;;;;16.54;51.67;98103.32;267473;1267;25288;-74
2023/03/25 21:31:24;;;;;;;12.60;5.40;;;;;;;16.86;50.48;98110.21;267962;1264;22653;-75
2023/03/25 21:37:28;;;;;;;15.20;6.00;;;;;;;17.14;49.36;98105.45;267246;1268;24247;-74
2023/03/25 21:43:34;;;;;;;14.70;7.10;;;;;;;17.20;48.84;98102.77;267484;1267;22536;-75
2023/03/25 21:49:37;;;;;;;15.10;8.00;;;;;;;17.09;48.83;98106.13;267361;1259;22535;-74
2023/03/25 21:55:38;;;;;;;14.50;8.30;;;;;;;17.04;48.68;98109.48;267425;1267;22521;-74
2023/03/25 22:01:40;;;;;;;13.60;7.00;;;;;;;17.02;48.65;98114.74;267462;1266;25433;-75
2023/03/25 22:07:42;;;;;;;12.10;5.90;;;;;;;16.91;48.64;98125.89;267173;1268;22635;-74
2023/03/25 22:13:44;;;;;;;10.00;4.90;;;;;;;16.99;48.33;98130.39;267282;1266;22520;-76
2023/03/25 22:19:49;;;;;;;5.70;2.50;;;;;;;16.73;48.43;98136.20;267494;1268;22709;-75
2023/03/25 22:25:51;;;;;;;6.40;2.10;;;;;;;16.32;48.92;98151.03;267162;1259;23294;-75
2023/03/25 22:31:54;;;;;;;3.20;1.70;;;;;;;16.54;48.41;98160.84;267269;1268;22576;-76
2023/03/25 22:37:56;;;;;;;3.70;1.60;;;;;;;16.40;48.38;98164.55;267430;1256;24196;-75
2023/03/25 22:43:58;;;;;;;3.80;1.70;;;;;;;16.45;48.42;98170.82;267268;1270;23036;-75
2023/03/25 22:49:59;;;;;;;4.40;1.70;;;;;;;16.43;48.88;98169.98;267487;1268;22544;-73
2023/03/25 22:56:02;;;;;;;3.00;1.10;;;;;;;16.13;49.16;98180.60;267093;1255;24159;-74
2023/03/25 23:02:04;;;;;;;2.70;1.00;;;;;;;16.23;48.11;98177.93;267064;1267;22562;-75
2023/03/25 23:08:06;;;;;;;1.50;1.00;;;;;;;16.19;47.31;98177.66;267187;1262;23019;-75
2023/03/25 23:14:10;;;;;;;1.80;0.90;;;;;;;16.17;47.60;98181.52;267260;1267;22582;-73
2023/03/25 23:20:12;;;;;;;2.90;1.00;;;;;;;16.08;48.32;98169.59;267287;1268;25354;-73
2023/03/25 23:26:18;;;;;;;1.70;0.90;;;;;;;15.83;49.14;98162.73;267337;1265;25316;-73
2023/03/25 23:32:22;;;;;;;2.30;0.80;;;;;;;15.62;49.82;98162.51;267760;1255;23455;-73
2023/03/25 23:38:24;;;;;;;1.40;0.80;;;;;;;15.68;49.88;98167.76;267150;1259;24234;-73
2023/03/25 23:44:26;;;;;;;2.80;0.80;;;;;;;15.69;49.95;98167.86;267120;1266;24479;-74
2023/03/25 23:50:27;;;;;;;2.40;0.70;;;;;;;15.85;49.94;98170.73;267388;1251;22553;-73
2023/03/25 23:56:30;;;;;;;2.60;1.00;;;;;;;15.89;49.83;98172.55;268192;1267;22540;-73
